Time;durP1;ratioP1;P1;durP2;ratioP2;P2;SDS_P1;SDS_P2;PMS_P1;PMS_P2;Temp;Humidity;BMP_temperature;BMP_pressure;BME280_temperature;BME280_humidity;BME280_pressure;Samples;Min_cycle;Max_cycle;Signal;HPM_P1;HPM_P2
2020/12/25 00:00:25;;;;;;;119.72;65.13;;;;;;;;;;5094792;28;20052;-77
2020/12/25 00:02:52;;;;;;;107.90;63.38;;;;;;;;;;5095076;28;20060;-76
2020/12/25 00:05:19;;;;;;;115.75;64.30;;;;;;;;;;5093633;28;20035;-76
2020/12/25 00:07:45;;;;;;;137.35;65.55;;;;;;;;;;5094795;28;20028;-76
2020/12/25 00:10:11;;;;;;;121.47;67.35;;;;;;;;;;5094539;28;20099;-77
2020/12/25 00:12:37;;;;;;;135.25;66.95;;;;;;;;;;5094542;28;20116;-77
2020/12/25 00:15:03;;;;;;;154.98;68.43;;;;;;;;;;5094797;28;20028;-77
2020/12/25 00:17:29;;;;;;;133.27;67.50;;;;;;;;;;5094632;28;20024;-77
2020/12/25 00:19:55;;;;;;;185.52;87.53;;;;;;;;;;5094659;28;20024;-75
2020/12/25 00:22:22;;;;;;;109.85;62.47;;;;;;;;;;5094524;28;20027;-73
2020/12/25 00:24:48;;;;;;;109.20;61.17;;;;;;;;;;5094550;28;20028;-74
2020/12/25 00:27:14;;;;;;;93.05;57.70;;;;;;;;;;5094743;28;20034;-77
2020/12/25 00:29:40;;;;;;;97.82;57.15;;;;;;;;;;5094642;28;20383;-77
2020/12/25 00:32:06;;;;;;;85.32;52.75;;;;;;;;;;5094279;28;20090;-74
2020/12/25 00:34:32;;;;;;;93.50;55.78;;;;;;;;;;5093104;28;20046;-77
2020/12/25 00:36:58;;;;;;;89.13;52.80;;;;;;;;;;5094398;28;20050;-77
2020/12/25 00:39:24;;;;;;;88.88;55.20;;;;;;;;;;5094269;28;20107;-77
2020/12/25 00:41:51;;;;;;;70.07;51.35;;;;;;;;;;5094394;28;20032;-75
2020/12/25 00:44:18;;;;;;;76.30;50.92;;;;;;;;;;5094143;28;20060;-74
2020/12/25 00:46:44;;;;;;;77.85;51.13;;;;;;;;;;5094115;28;20020;-74
2020/12/25 00:49:11;;;;;;;76.93;51.90;;;;;;;;;;5094022;28;20478;-77
2020/12/25 00:51:37;;;;;;;66.55;49.85;;;;;;;;;;5094106;28;20028;-77
2020/12/25 00:54:03;;;;;;;69.60;50.35;;;;;;;;;;5093870;28;20523;-76
2020/12/25 00:56:29;;;;;;;95.50;59.03;;;;;;;;;;5093976;28;20028;-74
2020/12/25 00:58:56;;;;;;;74.10;48.85;;;;;;;;;;5093996;28;20149;-75
2020/12/25 01:01:22;;;;;;;66.57;46.53;;;;;;;;;;5093663;28;20055;-77
2020/12/25 01:03:48;;;;;;;87.57;55.95;;;;;;;;;;5093846;28;20467;-76
2020/12/25 01:06:15;;;;;;;64.68;49.90;;;;;;;;;;5092586;28;20478;-77
2020/12/25 01:08:42;;;;;;;65.97;51.33;;;;;;;;;;5093779;28;20020;-78
2020/12/25 01:11:08;;;;;;;73.88;52.58;;;;;;;;;;5093651;28;20028;-76
2020/12/25 01:13:35;;;;;;;81.18;50.60;;;;;;;;;;5093687;28;20436;-77
2020/12/25 01:16:08;;;;;;;67.32;51.83;;;;;;;;;;5093743;28;20024;-77
2020/12/25 01:18:34;;;;;;;73.30;56.30;;;;;;;;;;5093703;28;20030;-77
2020/12/25 01:21:00;;;;;;;65.93;52.10;;;;;;;;;;5093603;28;20100;-76
2020/12/25 01:23:26;;;;;;;61.75;51.72;;;;;;;;;;5093489;28;20082;-75
2020/12/25 01:25:53;;;;;;;75.25;54.22;;;;;;;;;;5093757;28;20024;-76
2020/12/25 01:28:19;;;;;;;81.20;55.38;;;;;;;;;;5093510;28;20036;-77
2020/12/25 01:30:45;;;;;;;62.00;50.50;;;;;;;;;;5093641;28;20446;-77
2020/12/25 01:33:11;;;;;;;64.65;50.10;;;;;;;;;;5093485;28;20024;-78
2020/12/25 01:35:38;;;;;;;156.43;64.70;;;;;;;;;;5093394;28;20073;-75
2020/12/25 01:38:04;;;;;;;86.03;50.22;;;;;;;;;;5093432;28;20035;-75
2020/12/25 01:40:31;;;;;;;88.10;46.55;;;;;;;;;;5093427;28;20080;-77
2020/12/25 01:42:57;;;;;;;107.82;48.58;;;;;;;;;;5095398;28;20467;-74
2020/12/25 01:45:23;;;;;;;68.68;43.00;;;;;;;;;;5097629;28;20356;-74
2020/12/25 01:47:54;;;;;;;61.72;41.90;;;;;;;;;;5097685;28;20470;-74
2020/12/25 01:50:21;;;;;;;70.72;43.00;;;;;;;;;;5097512;28;20039;-76
2020/12/25 01:52:47;;;;;;;271.35;78.22;;;;;;;;;;5096188;28;20471;-76
2020/12/25 01:55:14;;;;;;;123.97;53.40;;;;;;;;;;5097486;28;20074;-77
2020/12/25 01:57:41;;;;;;;114.85;48.10;;;;;;;;;;5097499;28;20031;-78
2020/12/25 02:00:07;;;;;;;81.95;39.85;;;;;;;;;;5097121;28;20050;-77
2020/12/25 02:02:33;;;;;;;73.35;43.90;;;;;;;;;;5097297;28;20459;-77
2020/12/25 02:05:00;;;;;;;104.03;48.70;;;;;;;;;;5097159;28;20077;-75
2020/12/25 02:07:26;;;;;;;73.57;44.35;;;;;;;;;;5097205;28;20050;-75
2020/12/25 02:09:52;;;;;;;93.03;43.72;;;;;;;;;;5097196;28;20028;-78
2020/12/25 02:12:18;;;;;;;70.13;41.95;;;;;;;;;;5097184;28;20024;-74
2020/12/25 02:14:45;;;;;;;63.85;43.92;;;;;;;;;;5097164;28;20103;-76
2020/12/25 02:17:11;;;;;;;69.60;40.97;;;;;;;;;;5096970;28;20024;-76
2020/12/25 02:19:37;;;;;;;74.85;43.58;;;;;;;;;;5097070;28;20059;-74
2020/12/25 02:22:03;;;;;;;59.03;37.72;;;;;;;;;;5096887;28;20490;-74
2020/12/25 02:24:30;;;;;;;66.82;39.92;;;;;;;;;;5096786;28;20032;-76
2020/12/25 02:26:56;;;;;;;83.75;40.40;;;;;;;;;;5095564;28;20085;-77
2020/12/25 02:29:22;;;;;;;70.30;39.17;;;;;;;;;;5096813;28;20024;-77
2020/12/25 02:31:48;;;;;;;76.18;39.17;;;;;;;;;;5096751;28;20032;-76
2020/12/25 02:34:14;;;;;;;69.20;37.85;;;;;;;;;;5096716;28;20031;-77
2020/12/25 02:36:40;;;;;;;69.13;38.47;;;;;;;;;;5096712;28;20024;-76
2020/12/25 02:39:06;;;;;;;54.38;34.95;;;;;;;;;;5096570;28;20032;-78
2020/12/25 02:41:32;;;;;;;55.28;32.40;;;;;;;;;;5096643;28;20487;-75
2020/12/25 02:43:59;;;;;;;55.40;33.15;;;;;;;;;;5096436;28;20054;-78
2020/12/25 02:46:28;;;;;;;55.65;34.13;;;;;;;;;;5096514;28;20076;-77
2020/12/25 02:48:55;;;;;;;66.70;38.40;;;;;;;;;;5096435;28;20032;-77
2020/12/25 02:51:21;;;;;;;57.63;36.42;;;;;;;;;;5096410;28;20031;-77
2020/12/25 02:53:47;;;;;;;76.95;39.08;;;;;;;;;;5096299;28;20028;-76
2020/12/25 02:56:17;;;;;;;79.82;38.85;;;;;;;;;;5096276;28;20020;-78
2020/12/25 02:58:44;;;;;;;66.82;40.03;;;;;;;;;;5096168;28;20027;-76
2020/12/25 03:01:11;;;;;;;67.95;43.58;;;;;;;;;;5095837;28;20060;-76
2020/12/25 03:03:37;;;;;;;68.60;41.63;;;;;;;;;;5096052;28;20036;-78
2020/12/25 03:06:03;;;;;;;74.05;41.67;;;;;;;;;;5096022;28;20024;-75
2020/12/25 03:08:30;;;;;;;71.68;43.50;;;;;;;;;;5096111;28;20028;-76
2020/12/25 03:10:56;;;;;;;76.20;43.97;;;;;;;;;;5095973;28;20052;-74
2020/12/25 03:13:22;;;;;;;68.68;42.33;;;;;;;;;;5095968;28;20031;-75
2020/12/25 03:15:48;;;;;;;81.53;46.63;;;;;;;;;;5096005;28;20043;-77
2020/12/25 03:18:14;;;;;;;65.07;41.13;;;;;;;;;;5095856;28;20024;-76
2020/12/25 03:20:40;;;;;;;63.65;40.80;;;;;;;;;;5095967;28;20024;-77
2020/12/25 03:23:06;;;;;;;61.55;42.15;;;;;;;;;;5095585;28;20024;-75
2020/12/25 03:25:32;;;;;;;66.38;42.38;;;;;;;;;;5094480;28;20162;-78
2020/12/25 03:27:58;;;;;;;63.22;41.42;;;;;;;;;;5095448;28;20024;-77
2020/12/25 03:30:24;;;;;;;60.40;41.90;;;;;;;;;;5095755;28;20028;-77
2020/12/25 03:32:50;;;;;;;75.10;42.83;;;;;;;;;;5095638;28;20021;-74
2020/12/25 03:35:17;;;;;;;54.45;39.70;;;;;;;;;;5095614;28;20485;-75
2020/12/25 03:37:43;;;;;;;55.80;39.08;;;;;;;;;;5095549;28;20445;-77
2020/12/25 03:40:10;;;;;;;51.42;38.70;;;;;;;;;;5094006;28;20031;-76
2020/12/25 03:42:36;;;;;;;56.75;39.13;;;;;;;;;;5095362;28;20032;-76
2020/12/25 03:45:02;;;;;;;57.20;39.50;;;;;;;;;;5095357;28;20093;-77
2020/12/25 03:47:29;;;;;;;55.45;38.08;;;;;;;;;;5095532;28;20020;-78
2020/12/25 03:49:55;;;;;;;58.92;37.75;;;;;;;;;;5095286;28;20056;-74
2020/12/25 03:52:21;;;;;;;54.20;36.17;;;;;;;;;;5095347;28;20032;-77
2020/12/25 03:54:47;;;;;;;50.60;34.58;;;;;;;;;;5093842;28;20035;-75
2020/12/25 03:57:13;;;;;;;46.95;32.55;;;;;;;;;;5095135;28;20102;-76
2020/12/25 03:59:40;;;;;;;47.45;29.45;;;;;;;;;;5094895;28;20032;-78
2020/12/25 04:02:06;;;;;;;48.75;29.48;;;;;;;;;;5095082;28;20071;-75
2020/12/25 04:04:32;;;;;;;50.75;30.27;;;;;;;;;;5094709;28;20039;-74
2020/12/25 04:06:58;;;;;;;62.13;37.38;;;;;;;;;;5094504;28;20031;-75
2020/12/25 04:09:24;;;;;;;56.45;37.63;;;;;;;;;;5094985;28;20028;-78
2020/12/25 04:11:50;;;;;;;58.65;40.78;;;;;;;;;;5094641;28;20028;-76
2020/12/25 04:14:19;;;;;;;52.63;37.38;;;;;;;;;;5094887;28;20023;-76
2020/12/25 04:16:45;;;;;;;100.22;49.38;;;;;;;;;;5094806;28;20440;-78
2020/12/25 04:19:12;;;;;;;110.05;52.70;;;;;;;;;;5094686;28;20020;-77
2020/12/25 04:21:41;;;;;;;74.90;43.83;;;;;;;;;;5093431;28;20024;-75
2020/12/25 04:24:07;;;;;;;88.80;43.72;;;;;;;;;;5094547;28;20116;-75
2020/12/25 04:26:33;;;;;;;49.55;34.92;;;;;;;;;;5093336;28;20024;-77
2020/12/25 04:29:00;;;;;;;62.20;36.42;;;;;;;;;;5094407;28;20103;-74
2020/12/25 04:31:26;;;;;;;60.92;35.08;;;;;;;;;;5094554;28;20032;-77
2020/12/25 04:33:52;;;;;;;83.50;40.63;;;;;;;;;;5094444;28;20027;-75
2020/12/25 04:36:19;;;;;;;48.55;34.40;;;;;;;;;;5094431;28;20470;-73
2020/12/25 04:38:45;;;;;;;52.10;33.50;;;;;;;;;;5094348;28;20035;-77
2020/12/25 04:41:11;;;;;;;42.78;32.15;;;;;;;;;;5094482;28;20060;-74
2020/12/25 04:43:56;;;;;;;107.63;43.70;;;;;;;;;;5094265;28;20035;-75
2020/12/25 04:46:22;;;;;;;47.67;33.25;;;;;;;;;;5094235;28;20024;-74
2020/12/25 04:48:49;;;;;;;51.63;33.78;;;;;;;;;;5094138;28;20028;-74
2020/12/25 04:51:15;;;;;;;77.40;35.15;;;;;;;;;;5094087;28;20024;-77
2020/12/25 04:53:41;;;;;;;57.15;34.95;;;;;;;;;;5094079;28;20410;-77
2020/12/25 04:56:07;;;;;;;115.32;46.50;;;;;;;;;;5094004;28;20028;-75
2020/12/25 04:58:34;;;;;;;61.17;38.42;;;;;;;;;;5092853;28;20463;-75
2020/12/25 05:01:04;;;;;;;66.45;44.38;;;;;;;;;;5093687;28;20055;-78
2020/12/25 05:03:37;;;;;;;55.55;39.05;;;;;;;;;;5093922;28;20040;-77
2020/12/25 05:06:03;;;;;;;106.43;36.60;;;;;;;;;;5093757;28;20027;-75
2020/12/25 05:08:35;;;;;;;61.35;36.35;;;;;;;;;;5093838;28;20024;-74
2020/12/25 05:11:01;;;;;;;56.25;34.10;;;;;;;;;;5093780;28;20020;-79
2020/12/25 05:13:27;;;;;;;68.80;39.42;;;;;;;;;;5093667;28;20411;-75
2020/12/25 05:15:53;;;;;;;52.10;31.75;;;;;;;;;;5093748;28;20031;-77
2020/12/25 05:18:20;;;;;;;44.35;32.38;;;;;;;;;;5092904;28;20107;-76
2020/12/25 05:20:48;;;;;;;46.22;31.38;;;;;;;;;;5093642;28;20070;-77
2020/12/25 05:23:14;;;;;;;44.97;32.97;;;;;;;;;;5093578;28;20075;-78
2020/12/25 05:25:40;;;;;;;45.00;32.83;;;;;;;;;;5092434;28;20440;-77
2020/12/25 05:28:25;;;;;;;43.50;31.10;;;;;;;;;;5093595;28;20016;-78
2020/12/25 05:30:51;;;;;;;35.08;27.00;;;;;;;;;;5093614;28;20024;-76
2020/12/25 05:33:17;;;;;;;36.90;25.27;;;;;;;;;;5093627;28;20024;-75
2020/12/25 05:35:43;;;;;;;27.15;22.60;;;;;;;;;;5093466;28;20020;-79
2020/12/25 05:38:10;;;;;;;27.38;22.80;;;;;;;;;;5092173;28;20028;-80
2020/12/25 05:40:42;;;;;;;25.50;22.20;;;;;;;;;;5093462;28;20028;-79
2020/12/25 05:43:09;;;;;;;27.55;21.65;;;;;;;;;;5093438;28;20128;-77
2020/12/25 05:45:40;;;;;;;31.55;24.20;;;;;;;;;;5093310;28;20104;-78
2020/12/25 05:48:07;;;;;;;55.65;39.22;;;;;;;;;;5093633;28;20032;-79
2020/12/25 05:50:33;;;;;;;63.33;46.42;;;;;;;;;;5093365;28;20523;-76
2020/12/25 05:53:00;;;;;;;54.45;38.53;;;;;;;;;;5093288;28;20052;-76
2020/12/25 05:55:26;;;;;;;34.80;27.85;;;;;;;;;;5093359;28;20027;-77
2020/12/25 05:57:54;;;;;;;42.08;29.35;;;;;;;;;;5093320;28;20024;-79
2020/12/25 06:00:27;;;;;;;40.88;31.15;;;;;;;;;;5093100;28;20047;-77
2020/12/25 06:02:54;;;;;;;44.42;31.65;;;;;;;;;;5093121;28;20044;-76
2020/12/25 06:05:20;;;;;;;48.47;33.78;;;;;;;;;;5093198;28;20028;-77
2020/12/25 06:07:52;;;;;;;48.10;35.42;;;;;;;;;;5093203;28;20035;-78
2020/12/25 06:10:20;;;;;;;41.10;28.52;;;;;;;;;;5093264;28;20069;-75
2020/12/25 06:12:46;;;;;;;38.20;28.77;;;;;;;;;;5091676;28;20024;-78
2020/12/25 06:15:38;;;;;;;45.53;32.97;;;;;;;;;;5093343;28;20099;-77
2020/12/25 06:18:16;;;;;;;45.88;36.70;;;;;;;;;;5084320;28;20079;-78
2020/12/25 06:20:47;;;;;;;59.75;47.88;;;;;;;;;;5092205;28;20544;-74
2020/12/25 06:23:14;;;;;;;51.60;39.70;;;;;;;;;;5092705;28;20039;-74
2020/12/25 06:25:40;;;;;;;48.22;37.58;;;;;;;;;;5080314;28;20025;-75
2020/12/25 06:28:07;;;;;;;48.53;36.75;;;;;;;;;;5081652;28;20053;-75
2020/12/25 06:30:33;;;;;;;48.50;37.65;;;;;;;;;;5096101;28;20140;-80
2020/12/25 06:33:00;;;;;;;42.05;32.40;;;;;;;;;;5083576;28;20383;-75
2020/12/25 06:35:30;;;;;;;42.83;34.40;;;;;;;;;;5074732;28;20389;-79
2020/12/25 06:37:56;;;;;;;67.55;47.90;;;;;;;;;;5075885;28;20163;-76
2020/12/25 06:40:23;;;;;;;53.08;40.38;;;;;;;;;;5076024;28;20028;-77
2020/12/25 06:42:53;;;;;;;43.13;32.85;;;;;;;;;;5086677;28;20150;-78
2020/12/25 06:45:22;;;;;;;42.92;33.10;;;;;;;;;;5095091;28;20028;-76
2020/12/25 06:47:48;;;;;;;56.63;39.70;;;;;;;;;;5095100;28;20070;-78
2020/12/25 06:50:15;;;;;;;46.90;35.88;;;;;;;;;;5094926;28;20059;-75
2020/12/25 06:53:00;;;;;;;56.22;40.83;;;;;;;;;;5095187;28;20035;-77
2020/12/25 06:55:39;;;;;;;50.20;35.28;;;;;;;;;;5094971;28;20027;-77
2020/12/25 06:58:06;;;;;;;47.97;34.92;;;;;;;;;;5093560;28;20116;-77
2020/12/25 07:00:32;;;;;;;43.03;32.45;;;;;;;;;;5094728;28;20616;-75
2020/12/25 07:03:18;;;;;;;40.20;30.85;;;;;;;;;;5094974;28;20043;-76
2020/12/25 07:05:48;;;;;;;46.00;34.72;;;;;;;;;;5103205;28;20032;-75
2020/12/25 07:08:33;;;;;;;42.03;33.95;;;;;;;;;;5082487;28;20035;-77
2020/12/25 07:11:02;;;;;;;39.42;30.55;;;;;;;;;;5077589;28;20446;-74
2020/12/25 07:13:29;;;;;;;41.50;32.95;;;;;;;;;;5095935;28;20025;-76
2020/12/25 07:15:56;;;;;;;40.72;33.50;;;;;;;;;;5094796;28;20457;-74
2020/12/25 07:18:22;;;;;;;39.90;33.08;;;;;;;;;;5094462;28;20020;-78
2020/12/25 07:20:48;;;;;;;52.15;38.58;;;;;;;;;;5094565;28;20035;-77
2020/12/25 07:23:15;;;;;;;43.60;35.90;;;;;;;;;;5094379;28;20093;-77
2020/12/25 07:25:42;;;;;;;52.08;41.55;;;;;;;;;;5087951;28;20025;-79
2020/12/25 07:28:08;;;;;;;91.38;66.13;;;;;;;;;;5094404;28;20028;-80
2020/12/25 07:30:34;;;;;;;94.80;67.53;;;;;;;;;;5094040;28;20034;-76
2020/12/25 07:33:04;;;;;;;83.60;60.17;;;;;;;;;;5087478;28;20077;-75
2020/12/25 07:35:30;;;;;;;49.38;39.53;;;;;;;;;;5082285;28;20036;-76
2020/12/25 07:37:56;;;;;;;42.22;33.47;;;;;;;;;;5082082;28;20032;-75
2020/12/25 07:40:22;;;;;;;38.40;30.42;;;;;;;;;;5079155;28;20043;-77
2020/12/25 07:42:50;;;;;;;38.42;29.25;;;;;;;;;;5082136;28;20064;-76
2020/12/25 07:45:17;;;;;;;45.60;34.10;;;;;;;;;;5073657;28;20515;-76
2020/12/25 07:47:43;;;;;;;79.55;58.00;;;;;;;;;;5072282;28;20040;-77
2020/12/25 07:50:10;;;;;;;116.53;87.07;;;;;;;;;;5073239;28;20032;-75
2020/12/25 07:52:36;;;;;;;124.45;89.15;;;;;;;;;;5085345;28;20020;-75
2020/12/25 07:55:02;;;;;;;119.65;86.90;;;;;;;;;;5076113;28;20103;-77
2020/12/25 07:57:28;;;;;;;117.28;86.28;;;;;;;;;;5073163;28;20028;-77
2020/12/25 07:59:55;;;;;;;121.38;91.13;;;;;;;;;;5073567;28;20102;-76
2020/12/25 08:02:22;;;;;;;112.13;86.03;;;;;;;;;;5084576;28;20039;-76
2020/12/25 08:04:48;;;;;;;138.70;98.30;;;;;;;;;;5080869;28;20044;-76
2020/12/25 08:07:14;;;;;;;133.50;91.03;;;;;;;;;;5085487;28;20051;-75
2020/12/25 08:09:41;;;;;;;126.40;87.97;;;;;;;;;;5082718;28;20497;-78
2020/12/25 08:12:10;;;;;;;99.10;72.00;;;;;;;;;;5081101;28;20028;-75
2020/12/25 08:14:38;;;;;;;93.70;66.97;;;;;;;;;;5082322;28;20028;-77
2020/12/25 08:17:05;;;;;;;100.95;73.70;;;;;;;;;;5082826;28;21992;-77
2020/12/25 08:19:35;;;;;;;107.25;78.35;;;;;;;;;;5080850;28;20116;-77
2020/12/25 08:22:05;;;;;;;121.50;83.75;;;;;;;;;;5079410;28;20054;-76
2020/12/25 08:24:31;;;;;;;167.60;116.75;;;;;;;;;;5088888;28;20429;-75
2020/12/25 08:27:01;;;;;;;93.25;68.63;;;;;;;;;;5082623;28;20078;-76
2020/12/25 08:29:29;;;;;;;100.43;70.97;;;;;;;;;;5081511;28;20033;-75
2020/12/25 08:32:05;;;;;;;97.47;69.22;;;;;;;;;;5080625;28;20081;-76
2020/12/25 08:34:31;;;;;;;134.65;95.53;;;;;;;;;;5081716;28;20466;-76
2020/12/25 08:37:00;;;;;;;113.97;83.25;;;;;;;;;;5092582;28;20106;-76
2020/12/25 08:39:28;;;;;;;131.77;103.18;;;;;;;;;;5091765;28;20024;-75
2020/12/25 08:41:54;;;;;;;137.13;106.65;;;;;;;;;;5092438;28;20379;-76
2020/12/25 08:44:21;;;;;;;150.65;112.93;;;;;;;;;;5091585;28;20036;-76
2020/12/25 08:46:47;;;;;;;145.27;109.10;;;;;;;;;;5092671;28;20161;-81
2020/12/25 08:49:24;;;;;;;136.32;101.82;;;;;;;;;;5092901;28;20066;-76
2020/12/25 08:51:51;;;;;;;133.40;102.55;;;;;;;;;;5092764;28;20487;-76
2020/12/25 08:54:23;;;;;;;191.05;140.82;;;;;;;;;;5092868;28;20387;-75
2020/12/25 08:56:50;;;;;;;209.63;149.60;;;;;;;;;;5092522;28;20081;-76
2020/12/25 08:59:20;;;;;;;183.95;140.02;;;;;;;;;;5092518;28;20028;-78
2020/12/25 09:01:46;;;;;;;205.48;152.60;;;;;;;;;;5092176;28;20051;-76
2020/12/25 09:04:13;;;;;;;197.00;146.15;;;;;;;;;;5092595;28;20130;-76
2020/12/25 09:06:39;;;;;;;170.88;130.93;;;;;;;;;;5092469;28;20059;-78
2020/12/25 09:09:05;;;;;;;199.93;144.23;;;;;;;;;;5092599;28;20028;-77
2020/12/25 09:11:31;;;;;;;173.23;134.30;;;;;;;;;;5092507;28;20020;-75
2020/12/25 09:13:58;;;;;;;144.30;116.97;;;;;;;;;;5092151;28;20043;-77
2020/12/25 09:16:26;;;;;;;153.10;119.57;;;;;;;;;;5092475;28;20174;-77
2020/12/25 09:18:52;;;;;;;143.02;111.75;;;;;;;;;;5092074;28;20032;-77
2020/12/25 09:21:18;;;;;;;136.88;103.55;;;;;;;;;;5092291;28;20052;-77
2020/12/25 09:23:45;;;;;;;133.13;102.47;;;;;;;;;;5092226;28;20096;-77
2020/12/25 09:26:12;;;;;;;112.00;88.85;;;;;;;;;;5092079;28;20085;-78
2020/12/25 09:28:38;;;;;;;116.60;93.72;;;;;;;;;;5092038;28;20024;-78
2020/12/25 09:31:05;;;;;;;108.03;85.75;;;;;;;;;;5092222;28;20047;-77
2020/12/25 09:33:32;;;;;;;104.40;84.75;;;;;;;;;;5092078;28;20035;-76
2020/12/25 09:35:58;;;;;;;106.13;86.15;;;;;;;;;;5092037;28;20028;-77
2020/12/25 09:38:24;;;;;;;96.00;76.25;;;;;;;;;;5092265;28;20066;-76
2020/12/25 09:40:51;;;;;;;90.40;71.57;;;;;;;;;;5091868;28;20024;-77
2020/12/25 09:43:19;;;;;;;125.03;101.30;;;;;;;;;;5092994;28;20028;-76
2020/12/25 09:45:45;;;;;;;90.53;70.93;;;;;;;;;;5091330;28;20028;-75
2020/12/25 09:48:12;;;;;;;75.78;60.95;;;;;;;;;;5087301;28;20075;-75
2020/12/25 09:50:38;;;;;;;66.30;52.97;;;;;;;;;;5087955;28;20028;-76
2020/12/25 09:53:04;;;;;;;64.25;50.13;;;;;;;;;;5092446;28;20468;-77
2020/12/25 09:55:36;;;;;;;61.30;46.97;;;;;;;;;;5092650;28;20039;-76
2020/12/25 09:58:02;;;;;;;79.60;62.28;;;;;;;;;;5091870;28;20031;-76
2020/12/25 10:00:28;;;;;;;104.35;81.55;;;;;;;;;;5088951;28;20051;-76
2020/12/25 10:02:54;;;;;;;100.80;82.90;;;;;;;;;;5092256;28;20085;-76
2020/12/25 10:05:21;;;;;;;97.60;80.90;;;;;;;;;;5096092;28;20028;-76
2020/12/25 10:07:48;;;;;;;122.05;96.95;;;;;;;;;;5095998;28;20030;-76
2020/12/25 10:10:15;;;;;;;143.20;109.30;;;;;;;;;;5095870;28;20028;-77
2020/12/25 10:12:41;;;;;;;149.75;115.05;;;;;;;;;;5096076;28;20409;-78
2020/12/25 10:15:07;;;;;;;148.25;118.50;;;;;;;;;;5095911;28;20024;-77
2020/12/25 10:17:34;;;;;;;153.50;121.13;;;;;;;;;;5095652;28;20390;-77
2020/12/25 10:20:00;;;;;;;129.77;100.32;;;;;;;;;;5095877;28;20032;-78
2020/12/25 10:22:26;;;;;;;135.68;111.25;;;;;;;;;;5095519;28;20049;-77
2020/12/25 10:24:52;;;;;;;141.57;113.45;;;;;;;;;;5095487;28;20028;-74
2020/12/25 10:27:19;;;;;;;175.18;135.57;;;;;;;;;;5094035;28;20525;-76
2020/12/25 10:29:45;;;;;;;158.00;117.03;;;;;;;;;;5095310;28;20039;-76
2020/12/25 10:32:11;;;;;;;133.60;104.55;;;;;;;;;;5095360;28;20035;-76
2020/12/25 10:34:37;;;;;;;123.05;96.93;;;;;;;;;;5095232;28;20035;-75
2020/12/25 10:37:03;;;;;;;113.18;92.55;;;;;;;;;;5095287;28;20035;-77
2020/12/25 10:39:30;;;;;;;99.65;77.55;;;;;;;;;;5095073;28;20149;-76
2020/12/25 10:41:57;;;;;;;116.32;92.22;;;;;;;;;;5095197;28;20402;-76
2020/12/25 10:44:24;;;;;;;109.25;90.82;;;;;;;;;;5095063;28;20032;-76
2020/12/25 10:46:50;;;;;;;146.20;114.25;;;;;;;;;;5095034;28;20031;-75
2020/12/25 10:49:16;;;;;;;129.70;104.82;;;;;;;;;;5095069;28;20035;-75
2020/12/25 10:51:46;;;;;;;136.18;110.13;;;;;;;;;;5091425;28;20472;-75
2020/12/25 10:54:12;;;;;;;140.32;106.72;;;;;;;;;;5080021;28;20043;-75
2020/12/25 10:56:38;;;;;;;173.02;120.05;;;;;;;;;;5081890;28;20062;-76
2020/12/25 10:59:05;;;;;;;164.15;116.93;;;;;;;;;;5080289;28;20028;-75
2020/12/25 11:01:31;;;;;;;167.68;124.75;;;;;;;;;;5093551;28;20055;-76
2020/12/25 11:03:57;;;;;;;131.77;106.68;;;;;;;;;;5093677;28;20032;-76
2020/12/25 11:06:37;;;;;;;120.65;98.22;;;;;;;;;;5087759;28;20107;-77
2020/12/25 11:09:07;;;;;;;95.22;77.72;;;;;;;;;;5079361;28;20035;-76
2020/12/25 11:11:34;;;;;;;67.57;54.22;;;;;;;;;;5092712;28;20046;-76
2020/12/25 11:14:00;;;;;;;80.00;59.03;;;;;;;;;;5093655;28;20086;-78
2020/12/25 11:16:30;;;;;;;55.13;45.97;;;;;;;;;;5083758;28;20588;-77
2020/12/25 11:18:57;;;;;;;67.47;50.72;;;;;;;;;;5084603;28;20115;-78
2020/12/25 11:21:23;;;;;;;57.65;46.30;;;;;;;;;;5087969;28;20383;-77
2020/12/25 11:23:50;;;;;;;141.73;98.70;;;;;;;;;;5084392;28;20044;-77
2020/12/25 11:26:27;;;;;;;52.25;39.40;;;;;;;;;;5083159;28;20036;-77
2020/12/25 11:28:57;;;;;;;47.42;37.00;;;;;;;;;;5081575;28;20227;-77
2020/12/25 11:31:24;;;;;;;44.70;35.45;;;;;;;;;;5081239;28;20028;-78
2020/12/25 11:33:50;;;;;;;44.20;34.88;;;;;;;;;;5079403;28;20024;-77
2020/12/25 11:36:18;;;;;;;48.63;38.95;;;;;;;;;;5084049;28;20024;-76
2020/12/25 11:38:44;;;;;;;58.67;46.92;;;;;;;;;;5081336;28;20036;-78
2020/12/25 11:41:11;;;;;;;42.33;34.45;;;;;;;;;;5083269;28;20055;-77
2020/12/25 11:43:37;;;;;;;53.47;41.38;;;;;;;;;;5090595;28;20134;-77
2020/12/25 11:46:04;;;;;;;49.13;39.45;;;;;;;;;;5080173;28;20043;-77
2020/12/25 11:48:31;;;;;;;42.25;35.20;;;;;;;;;;5073817;28;20100;-77
2020/12/25 11:50:57;;;;;;;36.63;32.78;;;;;;;;;;5093398;28;20028;-77
2020/12/25 11:53:23;;;;;;;38.00;31.67;;;;;;;;;;5093604;28;20027;-76
2020/12/25 11:55:49;;;;;;;31.83;26.55;;;;;;;;;;5092412;28;20028;-76
2020/12/25 11:58:16;;;;;;;32.30;26.55;;;;;;;;;;5091342;28;20455;-77
2020/12/25 12:00:42;;;;;;;30.75;25.77;;;;;;;;;;5090213;28;20054;-77
2020/12/25 12:03:09;;;;;;;28.35;25.05;;;;;;;;;;5083334;28;20052;-77
2020/12/25 12:05:35;;;;;;;31.95;27.85;;;;;;;;;;5080870;28;20079;-77
2020/12/25 12:08:01;;;;;;;35.63;28.83;;;;;;;;;;5086313;28;20028;-76
2020/12/25 12:10:28;;;;;;;37.47;32.63;;;;;;;;;;5074823;28;20045;-76
2020/12/25 12:12:54;;;;;;;41.42;34.83;;;;;;;;;;5076944;28;20032;-77
2020/12/25 12:15:20;;;;;;;41.28;34.05;;;;;;;;;;5085811;28;20032;-75
2020/12/25 12:17:46;;;;;;;40.05;33.80;;;;;;;;;;5078410;28;20387;-76
2020/12/25 12:20:12;;;;;;;42.35;34.47;;;;;;;;;;5076947;28;20048;-76
2020/12/25 12:22:38;;;;;;;43.88;36.17;;;;;;;;;;5079195;28;20024;-77
2020/12/25 12:25:07;;;;;;;45.78;38.75;;;;;;;;;;5088370;28;20032;-77
2020/12/25 12:27:34;;;;;;;58.38;48.42;;;;;;;;;;5091571;28;20028;-76
2020/12/25 12:30:19;;;;;;;53.42;45.08;;;;;;;;;;5091778;28;20119;-76
2020/12/25 12:32:45;;;;;;;60.05;49.70;;;;;;;;;;5091737;28;20024;-75
2020/12/25 12:35:11;;;;;;;58.65;49.63;;;;;;;;;;5091587;28;20107;-78
2020/12/25 12:37:37;;;;;;;49.92;43.85;;;;;;;;;;5080672;28;20072;-77
2020/12/25 12:40:04;;;;;;;52.83;44.70;;;;;;;;;;5076329;28;20040;-78
2020/12/25 12:42:32;;;;;;;49.10;42.13;;;;;;;;;;5086748;28;20530;-75
2020/12/25 12:44:58;;;;;;;52.35;44.38;;;;;;;;;;5071991;28;20040;-75
2020/12/25 12:47:24;;;;;;;50.30;44.88;;;;;;;;;;5070904;28;20033;-75
2020/12/25 12:49:51;;;;;;;42.75;35.22;;;;;;;;;;5079191;28;20035;-77
2020/12/25 12:52:17;;;;;;;73.47;49.42;;;;;;;;;;5070275;28;20406;-75
2020/12/25 12:54:43;;;;;;;52.67;39.85;;;;;;;;;;5091624;28;20028;-75
2020/12/25 12:57:09;;;;;;;46.53;37.88;;;;;;;;;;5091267;28;20031;-76
2020/12/25 12:59:35;;;;;;;35.80;31.40;;;;;;;;;;5091158;28;20032;-76
2020/12/25 13:02:01;;;;;;;38.78;34.20;;;;;;;;;;5091240;28;20032;-76
2020/12/25 13:04:27;;;;;;;40.67;33.08;;;;;;;;;;5090381;28;20040;-76
2020/12/25 13:06:54;;;;;;;47.30;38.47;;;;;;;;;;5090432;28;20082;-77
2020/12/25 13:09:20;;;;;;;45.70;37.15;;;;;;;;;;5090649;28;20032;-77
2020/12/25 13:11:46;;;;;;;39.65;32.22;;;;;;;;;;5091052;28;20025;-77
2020/12/25 13:14:12;;;;;;;36.25;30.48;;;;;;;;;;5083050;28;20032;-77
2020/12/25 13:16:39;;;;;;;28.05;22.92;;;;;;;;;;5090450;28;20073;-77
2020/12/25 13:19:05;;;;;;;38.60;32.05;;;;;;;;;;5090745;28;20095;-76
2020/12/25 13:21:31;;;;;;;32.25;27.13;;;;;;;;;;5090987;28;20099;-77
2020/12/25 13:23:57;;;;;;;43.90;35.25;;;;;;;;;;5091215;28;20063;-76
2020/12/25 13:26:24;;;;;;;46.85;37.33;;;;;;;;;;5089975;28;20032;-77
2020/12/25 13:28:50;;;;;;;43.28;37.63;;;;;;;;;;5090704;28;20050;-77
2020/12/25 13:31:20;;;;;;;52.30;43.40;;;;;;;;;;5090508;28;20023;-76
2020/12/25 13:33:47;;;;;;;60.50;50.30;;;;;;;;;;5090745;28;20028;-77
2020/12/25 13:36:14;;;;;;;54.50;43.30;;;;;;;;;;5089318;28;20024;-76
2020/12/25 13:38:40;;;;;;;42.97;36.00;;;;;;;;;;5089967;28;20441;-76
2020/12/25 13:41:10;;;;;;;41.15;32.63;;;;;;;;;;5090674;28;20028;-76
2020/12/25 13:43:36;;;;;;;31.48;25.50;;;;;;;;;;5090215;28;20047;-77
2020/12/25 13:46:02;;;;;;;35.67;28.30;;;;;;;;;;5090366;28;20024;-76
2020/12/25 13:48:28;;;;;;;36.45;29.05;;;;;;;;;;5088923;28;20085;-76
2020/12/25 13:50:55;;;;;;;34.38;29.02;;;;;;;;;;5084212;28;20024;-75
2020/12/25 13:53:24;;;;;;;30.45;24.73;;;;;;;;;;5088561;28;20078;-77
2020/12/25 13:55:50;;;;;;;31.98;25.83;;;;;;;;;;5090577;28;20023;-77
2020/12/25 13:58:17;;;;;;;55.92;43.15;;;;;;;;;;5088447;28;20032;-78
2020/12/25 14:00:43;;;;;;;51.03;40.35;;;;;;;;;;5090137;28;20040;-77
2020/12/25 14:03:09;;;;;;;42.42;32.08;;;;;;;;;;5087369;28;20044;-77
2020/12/25 14:05:35;;;;;;;34.45;27.88;;;;;;;;;;5090205;28;20032;-77
2020/12/25 14:08:01;;;;;;;30.15;24.55;;;;;;;;;;5090572;28;20028;-76
2020/12/25 14:10:27;;;;;;;26.58;22.70;;;;;;;;;;5083756;28;20890;-77